Buoy 52609

sailwx.info

Track history (hours):
 
Tides and Currents Weather Stations Pressure Air Temp Water Temp Dewpoint Dewpoint Depression Visibility Wind Speed Wind Dir Waves Ship Positions

Drifting buoy 52609

Last reported at 2016-Feb-13 09:00 UTC. Time now 2016-Feb-13 12:57 UTC.
Position N 18°44' E 111°54'.

Water temperature 24.0 ° C

Date/timePositionNaut miles runAvg speedWind from/ knotsBaromVisibWave heightAir tempDewpointWater temp
2016-Feb-13 09:00N 18°44' E 111°54'1 0.4 24.0
2016-Feb-13 06:00N 18°44' E 111°56'2 0.5 23.6
2016-Feb-13 02:00N 18°45' E 111°57'0 0.0 23.4
2016-Feb-13 01:00N 18°45' E 111°57'2 0.2 23.3
2016-Feb-12 18:00N 18°46' E 111°58'0 0.0 23.2
2016-Feb-12 17:00N 18°46' E 111°58'3 0.6 23.3
2016-Feb-12 12:00N 18°47' E 112°01'0 0.4 23.6
2016-Feb-12 11:00N 18°47' E 112°02'1 0.5 23.5
2016-Feb-12 09:00N 18°47' E 112°03'1 0.6 23.8
2016-Feb-12 08:00N 18°47' E 112°03'0 0.0 23.9
2016-Feb-12 07:00N 18°47' E 112°03'0 0.4 23.8
2016-Feb-12 06:00N 18°47' E 112°04'2 0.6 23.7
2016-Feb-12 02:00N 18°49' E 112°05'2 1.6 23.1
2016-Feb-12 01:00N 18°50' E 112°06'0 0.0 22.9
2016-Feb-11 23:00N 18°50' E 112°06'1 0.8 23.1
2016-Feb-11 22:00N 18°50' E 112°07'1 0.3 23.0
2016-Feb-11 18:00N 18°52' E 112°06'2 0.5 23.0
2016-Feb-11 14:00N 18°52' E 112°08'0 0.5 23.3
2016-Feb-11 13:00N 18°52' E 112°09'1 0.4 23.3
2016-Feb-11 11:00N 18°52' E 112°09'0 0.2 23.4
2016-Feb-11 10:00N 18°52' E 112°09'4 0.9 23.6
2016-Feb-11 06:00N 18°53' E 112°13'2 2.3 23.5
2016-Feb-11 05:00N 18°53' E 112°10'4 1.3 23.2
2016-Feb-11 02:00N 18°54' E 112°14'2 2.1 22.9
2016-Feb-11 01:00N 18°56' E 112°16'0 0.0 22.7
2016-Feb-11 00:00N 18°56' E 112°16'1 0.5 22.6
2016-Feb-10 21:00N 18°56' E 112°17'2 0.3 22.6
2016-Feb-10 14:00N 18°58' E 112°16'3 0.2 23.4
2016-Feb-10 02:00N 18°59' E 112°19'2 0.5 23.1
2016-Feb-09 21:00N 18°59' E 112°21'1 1.4 23.0
2016-Feb-09 20:00N 19°00' E 112°23'4 0.6 23.1
2016-Feb-09 13:00N 19°00' E 112°27'0 0.5 23.3
2016-Feb-09 12:00N 19°01' E 112°26'5 1.7 23.3
2016-Feb-09 09:00N 19°03' E 112°31'0 0.0 23.4
2016-Feb-09 08:00N 19°03' E 112°31'3 1.6 23.4
2016-Feb-09 06:00N 19°05' E 112°33'1 0.2 23.3
2016-Feb-09 02:00N 19°05' E 112°34'2 2.1 23.1
2016-Feb-09 01:00N 19°07' E 112°36'0 0.2 23.0
2016-Feb-09 00:00N 19°07' E 112°35'3 0.8 23.0
2016-Feb-08 21:00N 19°09' E 112°36'2 1.1 23.1
2016-Feb-08 19:00N 19°11' E 112°38'0 0.0 23.1
2016-Feb-08 18:00N 19°11' E 112°38'2 0.4 23.1
2016-Feb-08 12:00N 19°11' E 112°40'2 1.1 23.1
2016-Feb-08 10:00N 19°11' E 112°42'1 0.8 23.2
2016-Feb-08 09:00N 19°11' E 112°43'0 0.0 23.2
2016-Feb-08 08:00N 19°11' E 112°43'6 2.8 23.2
2016-Feb-08 06:00N 19°13' E 112°49'2 0.5 22.9
2016-Feb-08 02:00N 19°14' E 112°50'0 0.0 22.7
2016-Feb-08 01:00N 19°14' E 112°50'3 2.8 22.6
2016-Feb-08 00:00N 19°15' E 112°53'3 1.7 22.7
2016-Feb-07 22:00N 19°16' E 112°56'0 0.0 22.7
2016-Feb-07 21:00N 19°16' E 112°56'0 0.0 22.7
2016-Feb-07 20:00N 19°16' E 112°56'6 1.9 22.7
2016-Feb-07 17:00N 19°22' E 112°58'2 0.5 22.5
2016-Feb-07 13:00N 19°23' E 112°59'5 1.2 22.3
2016-Feb-07 09:00N 19°24' E 113°04'0 0.0 22.8
2016-Feb-07 08:00N 19°24' E 113°04'0 0.0 22.8
2016-Feb-07 06:00N 19°24' E 113°04'4 1.0 22.7
2016-Feb-07 02:00N 19°27' E 113°06'7 2.3 22.3
2016-Feb-06 23:00N 19°30' E 113°13'2 2.3 22.6
2016-Feb-06 22:00N 19°30' E 113°15'0 0.3 22.7
2016-Feb-06 21:00N 19°30' E 113°16'4 1.4 22.8
2016-Feb-06 18:00N 19°32' E 113°20'0 0.2 22.9
2016-Feb-06 17:00N 19°32' E 113°19'6 2.0 22.9
2016-Feb-06 14:00N 19°33' E 113°26'2 1.8 23.0
2016-Feb-06 13:00N 19°33' E 113°28'1 1.2 23.0
2016-Feb-06 12:00N 19°33' E 113°29'13 2.5 23.1
2016-Feb-06 07:00N 19°38' E 113°41'0 0.0 23.2
2016-Feb-06 05:00N 19°38' E 113°41'10 2.4 23.1
2016-Feb-06 01:00N 19°42' E 113°50'2 0.8 23.0
2016-Feb-05 23:00N 19°43' E 113°52'0 0.0 23.0
2016-Feb-05 22:00N 19°43' E 113°52'1 0.7 23.0
2016-Feb-05 21:00N 19°43' E 113°52'2 1.2 23.0
2016-Feb-05 19:00N 19°45' E 113°54'7 7.3 23.0
2016-Feb-05 18:00N 19°48' E 114°01'0 0.0 23.0
2016-Feb-05 17:00N 19°48' E 114°01'3 0.6 23.0
2016-Feb-05 13:00N 19°49' E 114°04'0 0.2 23.1
2016-Feb-05 12:00N 19°49' E 114°03'5 1.8 23.1
2016-Feb-05 09:00N 19°50' E 114°09'2 1.9 23.1
2016-Feb-05 08:00N 19°51' E 114°11'0 0.0 23.1
2016-Feb-05 07:00N 19°51' E 114°11'8 1.6 23.1
2016-Feb-05 02:00N 19°52' E 114°19'3 3.2 23.1
2016-Feb-05 01:00N 19°52' E 114°23'0 0.0 23.1
2016-Feb-04 23:00N 19°52' E 114°22'4 2.1 23.1
2016-Feb-04 21:00N 19°52' E 114°27'1 1.2 23.1
2016-Feb-04 20:00N 19°52' E 114°28'3 1.3 23.0
2016-Feb-04 18:00N 19°52' E 114°31'0 0.0 23.1
2016-Feb-04 17:00N 19°52' E 114°31'7 2.3 23.1
2016-Feb-04 14:00N 19°53' E 114°38'1 1.4 23.1
2016-Feb-04 13:00N 19°53' E 114°39'2 1.9 23.1
2016-Feb-04 12:00N 19°54' E 114°41'2 1.7 23.1
2016-Feb-04 11:00N 19°54' E 114°43'2 2.3 23.1
2016-Feb-04 10:00N 19°54' E 114°46'1 0.6 23.1
2016-Feb-04 09:00N 19°54' E 114°46'13 1.8 23.1
2016-Feb-04 02:00N 19°58' E 114°59'0 0.0 23.2
2016-Feb-04 01:00N 19°58' E 114°59'16 1.4 23.2
2016-Feb-03 13:00N 20°04' E 115°16'5 1.3 23.2
2016-Feb-03 09:00N 20°07' E 115°20'   23.2
Track history (hours):
 
Tides and Currents Weather Stations Pressure Air Temp Water Temp Dewpoint Dewpoint Depression Visibility Wind Speed Wind Dir Waves Ship Positions

Drifting buoy 52609

Last reported at 2016-Feb-13 09:00 UTC. Time now 2016-Feb-13 12:57 UTC.
Position N 18°44' E 111°54'.

Water temperature 24.0 ° C

Date/timePositionNaut miles runAvg speedWind from/ knotsBaromVisibWave heightAir tempDewpointWater temp
2016-Feb-13 09:00N 18°44' E 111°54'1 0.4 24.0
2016-Feb-13 06:00N 18°44' E 111°56'2 0.5 23.6
2016-Feb-13 02:00N 18°45' E 111°57'0 0.0 23.4
2016-Feb-13 01:00N 18°45' E 111°57'2 0.2 23.3
2016-Feb-12 18:00N 18°46' E 111°58'0 0.0 23.2
2016-Feb-12 17:00N 18°46' E 111°58'3 0.6 23.3
2016-Feb-12 12:00N 18°47' E 112°01'0 0.4 23.6
2016-Feb-12 11:00N 18°47' E 112°02'1 0.5 23.5
2016-Feb-12 09:00N 18°47' E 112°03'1 0.6 23.8
2016-Feb-12 08:00N 18°47' E 112°03'0 0.0 23.9
2016-Feb-12 07:00N 18°47' E 112°03'0 0.4 23.8
2016-Feb-12 06:00N 18°47' E 112°04'2 0.6 23.7
2016-Feb-12 02:00N 18°49' E 112°05'2 1.6 23.1
2016-Feb-12 01:00N 18°50' E 112°06'0 0.0 22.9
2016-Feb-11 23:00N 18°50' E 112°06'1 0.8 23.1
2016-Feb-11 22:00N 18°50' E 112°07'1 0.3 23.0
2016-Feb-11 18:00N 18°52' E 112°06'2 0.5 23.0
2016-Feb-11 14:00N 18°52' E 112°08'0 0.5 23.3
2016-Feb-11 13:00N 18°52' E 112°09'1 0.4 23.3
2016-Feb-11 11:00N 18°52' E 112°09'0 0.2 23.4
2016-Feb-11 10:00N 18°52' E 112°09'4 0.9 23.6
2016-Feb-11 06:00N 18°53' E 112°13'2 2.3 23.5
2016-Feb-11 05:00N 18°53' E 112°10'4 1.3 23.2
2016-Feb-11 02:00N 18°54' E 112°14'2 2.1 22.9
2016-Feb-11 01:00N 18°56' E 112°16'0 0.0 22.7
2016-Feb-11 00:00N 18°56' E 112°16'1 0.5 22.6
2016-Feb-10 21:00N 18°56' E 112°17'2 0.3 22.6
2016-Feb-10 14:00N 18°58' E 112°16'3 0.2 23.4
2016-Feb-10 02:00N 18°59' E 112°19'2 0.5 23.1
2016-Feb-09 21:00N 18°59' E 112°21'1 1.4 23.0
2016-Feb-09 20:00N 19°00' E 112°23'4 0.6 23.1
2016-Feb-09 13:00N 19°00' E 112°27'0 0.5 23.3
2016-Feb-09 12:00N 19°01' E 112°26'5 1.7 23.3
2016-Feb-09 09:00N 19°03' E 112°31'0 0.0 23.4
2016-Feb-09 08:00N 19°03' E 112°31'3 1.6 23.4
2016-Feb-09 06:00N 19°05' E 112°33'1 0.2 23.3
2016-Feb-09 02:00N 19°05' E 112°34'2 2.1 23.1
2016-Feb-09 01:00N 19°07' E 112°36'0 0.2 23.0
2016-Feb-09 00:00N 19°07' E 112°35'3 0.8 23.0
2016-Feb-08 21:00N 19°09' E 112°36'2 1.1 23.1
2016-Feb-08 19:00N 19°11' E 112°38'0 0.0 23.1
2016-Feb-08 18:00N 19°11' E 112°38'2 0.4 23.1
2016-Feb-08 12:00N 19°11' E 112°40'2 1.1 23.1
2016-Feb-08 10:00N 19°11' E 112°42'1 0.8 23.2
2016-Feb-08 09:00N 19°11' E 112°43'0 0.0 23.2
2016-Feb-08 08:00N 19°11' E 112°43'6 2.8 23.2
2016-Feb-08 06:00N 19°13' E 112°49'2 0.5 22.9
2016-Feb-08 02:00N 19°14' E 112°50'0 0.0 22.7
2016-Feb-08 01:00N 19°14' E 112°50'3 2.8 22.6
2016-Feb-08 00:00N 19°15' E 112°53'3 1.7 22.7
2016-Feb-07 22:00N 19°16' E 112°56'0 0.0 22.7
2016-Feb-07 21:00N 19°16' E 112°56'0 0.0 22.7
2016-Feb-07 20:00N 19°16' E 112°56'6 1.9 22.7
2016-Feb-07 17:00N 19°22' E 112°58'2 0.5 22.5
2016-Feb-07 13:00N 19°23' E 112°59'5 1.2 22.3
2016-Feb-07 09:00N 19°24' E 113°04'0 0.0 22.8
2016-Feb-07 08:00N 19°24' E 113°04'0 0.0 22.8
2016-Feb-07 06:00N 19°24' E 113°04'4 1.0 22.7
2016-Feb-07 02:00N 19°27' E 113°06'7 2.3 22.3
2016-Feb-06 23:00N 19°30' E 113°13'2 2.3 22.6
2016-Feb-06 22:00N 19°30' E 113°15'0 0.3 22.7
2016-Feb-06 21:00N 19°30' E 113°16'4 1.4 22.8
2016-Feb-06 18:00N 19°32' E 113°20'0 0.2 22.9
2016-Feb-06 17:00N 19°32' E 113°19'6 2.0 22.9
2016-Feb-06 14:00N 19°33' E 113°26'2 1.8 23.0
2016-Feb-06 13:00N 19°33' E 113°28'1 1.2 23.0
2016-Feb-06 12:00N 19°33' E 113°29'13 2.5 23.1
2016-Feb-06 07:00N 19°38' E 113°41'0 0.0 23.2
2016-Feb-06 05:00N 19°38' E 113°41'10 2.4 23.1
2016-Feb-06 01:00N 19°42' E 113°50'2 0.8 23.0
2016-Feb-05 23:00N 19°43' E 113°52'0 0.0 23.0
2016-Feb-05 22:00N 19°43' E 113°52'1 0.7 23.0
2016-Feb-05 21:00N 19°43' E 113°52'2 1.2 23.0
2016-Feb-05 19:00N 19°45' E 113°54'7 7.3 23.0
2016-Feb-05 18:00N 19°48' E 114°01'0 0.0 23.0
2016-Feb-05 17:00N 19°48' E 114°01'3 0.6 23.0
2016-Feb-05 13:00N 19°49' E 114°04'0 0.2 23.1
2016-Feb-05 12:00N 19°49' E 114°03'5 1.8 23.1
2016-Feb-05 09:00N 19°50' E 114°09'2 1.9 23.1
2016-Feb-05 08:00N 19°51' E 114°11'0 0.0 23.1
2016-Feb-05 07:00N 19°51' E 114°11'8 1.6 23.1
2016-Feb-05 02:00N 19°52' E 114°19'3 3.2 23.1
2016-Feb-05 01:00N 19°52' E 114°23'0 0.0 23.1
2016-Feb-04 23:00N 19°52' E 114°22'4 2.1 23.1
2016-Feb-04 21:00N 19°52' E 114°27'1 1.2 23.1
2016-Feb-04 20:00N 19°52' E 114°28'3 1.3 23.0
2016-Feb-04 18:00N 19°52' E 114°31'0 0.0 23.1
2016-Feb-04 17:00N 19°52' E 114°31'7 2.3 23.1
2016-Feb-04 14:00N 19°53' E 114°38'1 1.4 23.1
2016-Feb-04 13:00N 19°53' E 114°39'2 1.9 23.1
2016-Feb-04 12:00N 19°54' E 114°41'2 1.7 23.1
2016-Feb-04 11:00N 19°54' E 114°43'2 2.3 23.1
2016-Feb-04 10:00N 19°54' E 114°46'1 0.6 23.1
2016-Feb-04 09:00N 19°54' E 114°46'13 1.8 23.1
2016-Feb-04 02:00N 19°58' E 114°59'0 0.0 23.2
2016-Feb-04 01:00N 19°58' E 114°59'16 1.4 23.2
2016-Feb-03 13:00N 20°04' E 115°16'5 1.3 23.2
2016-Feb-03 09:00N 20°07' E 115°20'   23.2

Dump ship's entire track history